Time;durP1;ratioP1;P1;durP2;ratioP2;P2;SDS_P1;SDS_P2;PMS_P1;PMS_P2;Temp;Humidity;BMP_temperature;BMP_pressure;BME280_temperature;BME280_humidity;BME280_pressure;Samples;Min_cycle;Max_cycle;Signal;HPM_P1;HPM_P2
2022/09/15 07:19:19;;;;;;;33.90;21.30;;;16.70;99.90;;;;;;4919544;29;20465;-86
2022/09/15 11:26:44;;;;;;;;;;;;;;;;;;;;;
2022/09/15 12:53:54;;;;;;;7.87;2.50;;;20.70;99.90;;;;;;4904677;29;20538;-85
2022/09/15 13:08:37;;;;;;;;;;;;;;;;;;;;;
2022/09/15 13:32:38;;;;;;;6.00;1.80;;;18.70;99.90;;;;;;4822708;29;20429;-84
2022/09/15 13:35:31;;;;;;;14.60;7.97;;;18.50;99.90;;;;;;4882126;29;20480;-85
2022/09/15 13:38:25;;;;;;;46.63;29.30;;;18.40;99.90;;;;;;4941028;29;20991;-84
2022/09/15 13:41:22;;;;;;;50.57;25.03;;;18.20;99.90;;;;;;4938890;29;20982;-84
2022/09/15 13:44:38;;;;;;;49.60;29.43;;;18.10;1.00;;;;;;4924167;29;20483;-85
2022/09/15 13:47:34;;;;;;;5.33;2.70;;;18.10;1.00;;;;;;4939708;29;20429;-85
2022/09/15 13:50:33;;;;;;;5.83;2.50;;;18.10;1.00;;;;;;4939792;29;20450;-85
2022/09/15 13:53:41;;;;;;;6.83;4.60;;;18.20;1.00;;;;;;4942394;29;21069;-84
2022/09/15 13:56:18;;;;;;;3.60;3.30;;;18.30;99.90;;;;;;4938595;29;20418;-85
2022/09/15 13:58:54;;;;;;;;;;;;;;;;;;;;;
2022/09/15 14:01:26;;;;;;;5.10;2.53;;;18.60;99.90;;;;;;4942445;29;20500;-84
2022/09/15 14:03:57;;;;;;;7.03;4.43;;;18.60;99.90;;;;;;4932157;29;20453;-84
2022/09/15 14:06:50;;;;;;;3.43;2.47;;;18.70;99.90;;;;;;4941846;29;20419;-85
2022/09/15 14:10:08;;;;;;;8.20;5.30;;;18.80;96.50;;;;;;4927432;29;20467;-84
2022/09/15 14:12:45;;;;;;;3.93;2.10;;;19.00;34.40;;;;;;4936462;29;20490;-85
2022/09/15 14:15:29;;;;;;;15.73;3.43;;;19.20;9.50;;;;;;4922512;29;20457;-83
2022/09/15 14:18:20;;;;;;;9.13;5.83;;;19.30;1.00;;;;;;4934112;29;20444;-85
2022/09/15 14:24:41;;;;;;;4.87;4.30;;;19.20;1.00;;;;;;4934757;29;20517;-84
2022/09/15 14:27:39;;;;;;;;;;;;;;;;;;;;;
2022/09/15 14:30:21;;;;;;;8.63;4.97;;;19.20;20.50;;;;;;4923797;29;20492;-85
2022/09/15 14:33:36;;;;;;;;;;;;;;;;;;;;;
2022/09/15 14:36:34;;;;;;;6.20;4.17;;;19.20;4.30;;;;;;4926177;29;20614;-85
2022/09/15 14:39:30;;;;;;;4.47;3.20;;;19.10;26.10;;;;;;4921005;29;20501;-85
2022/09/15 14:45:50;;;;;;;4.23;2.50;;;19.10;99.90;;;;;;4910630;29;20573;-85
2022/09/15 14:48:26;;;;;;;5.83;3.30;;;19.10;99.90;;;;;;4925069;29;20527;-85
2022/09/15 14:58:24;;;;;;;6.00;2.27;;;19.10;99.90;;;;;;4942518;29;20788;-85
2022/09/15 15:01:12;;;;;;;7.50;3.17;;;19.00;99.90;;;;;;4940223;29;20545;-84
2022/09/15 15:03:46;;;;;;;4.10;1.90;;;19.00;99.90;;;;;;4941761;29;20451;-85
2022/09/15 15:06:28;;;;;;;7.60;2.50;;;19.10;99.90;;;;;;4946176;29;20970;-85
2022/09/15 15:09:20;;;;;;;4.80;2.70;;;19.20;99.00;;;;;;4936595;29;20437;-85
2022/09/15 15:12:26;;;;;;;2.70;2.10;;;19.30;22.50;;;;;;4921375;29;20479;-85
2022/09/15 15:17:56;;;;;;;8.53;2.40;;;19.50;1.00;;;;;;4931195;29;20448;-85
2022/09/15 15:30:30;;;;;;;9.60;1.80;;;19.60;1.00;;;;;;4899572;29;20444;-85
2022/09/15 15:33:29;;;;;;;8.43;2.30;;;19.60;1.00;;;;;;4942530;29;20629;-85
2022/09/15 15:36:35;;;;;;;;;;;;;;;;;;;;;
2022/09/15 15:39:22;;;;;;;5.57;2.70;;;19.60;99.90;;;;;;4940907;29;20556;-84
2022/09/15 15:42:11;;;;;;;8.00;1.83;;;19.50;99.90;;;;;;4929673;29;20447;-84
2022/09/15 15:45:11;;;;;;;8.47;2.70;;;19.50;99.90;;;;;;4932740;29;21132;-84
2022/09/15 15:48:03;;;;;;;5.60;1.90;;;19.40;99.90;;;;;;4909288;29;20482;-84
2022/09/15 15:51:04;;;;;;;4.30;1.37;;;19.40;99.90;;;;;;4931480;29;20463;-84
2022/09/15 15:54:22;;;;;;;5.00;1.50;;;19.30;99.90;;;;;;4946221;29;20458;-84
2022/09/15 15:56:56;;;;;;;4.60;1.60;;;19.10;99.90;;;;;;4926233;29;20449;-85
2022/09/15 15:59:28;;;;;;;4.50;3.07;;;19.00;99.90;;;;;;4943074;29;20460;-85
2022/09/15 16:02:26;;;;;;;4.10;1.17;;;18.90;1.00;;;;;;4950853;29;20496;-84
2022/09/15 16:05:33;;;;;;;4.47;1.70;;;18.90;1.00;;;;;;4922244;29;20447;-85
2022/09/15 16:08:10;;;;;;;5.97;2.00;;;18.90;99.90;;;;;;4945800;29;20414;-85
2022/09/15 16:10:57;;;;;;;5.87;1.60;;;18.80;99.90;;;;;;4944426;29;20474;-84
2022/09/15 16:30:32;;;;;;;9.30;2.47;;;18.70;1.00;;;;;;4854750;29;20453;-85
2022/09/15 17:09:13;;;;;;;5.07;1.90;;;18.00;1.00;;;;;;4943376;29;20485;-84
2022/09/15 17:11:41;;;;;;;7.20;2.53;;;17.80;1.00;;;;;;4953439;29;20489;-83
2022/09/15 17:14:20;;;;;;;3.80;1.90;;;17.80;1.00;;;;;;4952358;28;20482;-84
2022/09/15 17:16:51;;;;;;;2.10;1.60;;;17.80;37.70;;;;;;4939322;29;20719;-84
2022/09/15 17:19:19;;;;;;;4.73;1.97;;;17.70;1.00;;;;;;4936065;29;20483;-84
2022/09/15 17:21:49;;;;;;;29.57;20.43;;;17.60;1.00;;;;;;4945534;29;20453;-85
2022/09/15 17:24:16;;;;;;;4.47;1.53;;;17.60;1.00;;;;;;4941400;29;20455;-84
2022/09/15 17:26:42;;;;;;;5.73;1.50;;;17.50;1.00;;;;;;4942045;29;20420;-85
2022/09/15 17:29:28;;;;;;;5.43;3.23;;;17.50;1.00;;;;;;4936744;29;20992;-83
2022/09/15 17:31:53;;;;;;;6.60;1.87;;;17.40;1.00;;;;;;4943147;29;20734;-84
2022/09/15 17:34:31;;;;;;;;;;;;;;;;;;;;;
2022/09/15 17:36:59;;;;;;;1.97;1.30;;;17.30;1.00;;;;;;4938955;29;20255;-85
2022/09/15 17:39:25;;;;;;;2.63;1.30;;;17.20;99.90;;;;;;4937323;29;20466;-85
2022/09/15 17:41:50;;;;;;;7.50;1.70;;;17.20;99.90;;;;;;4947127;29;20474;-84
2022/09/15 17:44:19;;;;;;;4.60;1.60;;;17.20;99.90;;;;;;4946804;29;20691;-86
2022/09/15 17:47:47;;;;;;;4.97;1.53;;;17.10;99.90;;;;;;4945076;29;20195;-85
2022/09/15 17:59:00;;;;;;;2.67;1.50;;;16.90;99.90;;;;;;4962441;29;20501;-85
2022/09/15 18:01:55;;;;;;;5.80;1.70;;;16.80;99.90;;;;;;4964793;28;20444;-83
2022/09/15 18:04:30;;;;;;;6.17;1.83;;;16.80;99.90;;;;;;4957316;28;20477;-84
2022/09/15 18:07:35;;;;;;;;;;;;;;;;;;;;;
2022/09/15 18:14:09;;;;;;;3.37;1.67;;;16.60;99.90;;;;;;4953014;28;20832;-83
2022/09/15 18:16:56;;;;;;;8.73;1.80;;;16.60;99.90;;;;;;4933439;29;20456;-84
2022/09/15 18:19:42;;;;;;;3.97;2.43;;;16.50;99.90;;;;;;4952083;28;20551;-85
2022/09/15 18:22:46;;;;;;;5.50;1.70;;;16.50;99.90;;;;;;4924024;29;20450;-83
2022/09/15 18:25:29;;;;;;;2.73;1.30;;;16.50;99.90;;;;;;4944657;29;20459;-85
2022/09/15 18:31:15;;;;;;;8.37;2.33;;;16.40;99.90;;;;;;4961443;28;20509;-84
2022/09/15 18:33:51;;;;;;;4.63;1.50;;;16.40;99.90;;;;;;4948926;29;20441;-85
2022/09/15 18:39:43;;;;;;;4.13;1.50;;;16.40;1.00;;;;;;4947645;29;20468;-85
2022/09/15 18:42:48;;;;;;;9.33;2.20;;;16.40;1.00;;;;;;4949962;29;20456;-83
2022/09/15 18:45:53;;;;;;;3.10;1.77;;;16.40;1.00;;;;;;4938165;29;20442;-82
2022/09/15 18:54:47;;;;;;;3.40;1.60;;;16.30;1.00;;;;;;4945347;29;20512;-84
2022/09/15 18:57:40;;;;;;;2.60;1.57;;;16.30;1.00;;;;;;4926841;29;20461;-83
2022/09/15 19:00:47;;;;;;;4.73;1.90;;;16.20;1.00;;;;;;4930602;29;20484;-83
2022/09/15 19:06:35;;;;;;;3.80;1.47;;;16.20;1.00;;;;;;4871767;29;20995;-84
2022/09/15 19:09:07;;;;;;;4.60;1.40;;;16.20;1.00;;;;;;4932639;29;20457;-85
2022/09/15 19:11:53;;;;;;;9.53;2.10;;;16.10;1.00;;;;;;4949182;29;20440;-83
2022/09/15 19:14:21;;;;;;;6.30;1.87;;;16.10;1.00;;;;;;4948902;29;20448;-82
2022/09/15 19:16:59;;;;;;;4.77;2.03;;;16.10;1.00;;;;;;4944499;29;20476;-84
2022/09/15 19:19:45;;;;;;;6.90;2.77;;;16.00;10.70;;;;;;4937573;29;20484;-83
2022/09/15 19:25:30;;;;;;;5.20;2.10;;;16.00;99.90;;;;;;4938624;28;20455;-83
2022/09/15 19:31:28;;;;;;;5.60;2.83;;;16.00;99.90;;;;;;4956606;29;20432;-83
2022/09/15 19:34:00;;;;;;;10.30;3.00;;;16.00;99.90;;;;;;4956342;28;20484;-85
2022/09/15 19:39:50;;;;;;;5.00;2.97;;;16.00;99.90;;;;;;4938114;29;20508;-84
2022/09/15 19:42:44;;;;;;;3.33;2.27;;;16.00;99.90;;;;;;4946602;29;20940;-83
2022/09/15 19:45:45;;;;;;;;;;;;;;;;;;;;;
2022/09/15 19:51:58;;;;;;;10.13;4.43;;;15.90;99.90;;;;;;4947387;29;20432;-85
2022/09/15 20:01:22;;;;;;;;;;;;;;;;;;;;;
2022/09/15 20:04:27;;;;;;;5.80;1.80;;;15.80;1.00;;;;;;4940497;29;20528;-83
2022/09/15 20:07:46;;;;;;;;;;;;;;;;;;;;;
2022/09/15 20:10:58;;;;;;;4.83;2.00;;;15.70;1.00;;;;;;4959975;28;21017;-83
2022/09/15 20:13:42;;;;;;;;;;;;;;;;;;;;;
2022/09/15 20:19:57;;;;;;;;;;;;;;;;;;;;;
2022/09/15 20:22:32;;;;;;;8.47;2.30;;;15.70;1.00;;;;;;4950471;29;20443;-83
2022/09/15 20:28:16;;;;;;;8.50;3.40;;;15.60;99.90;;;;;;4946334;29;20439;-84
2022/09/15 20:31:40;;;;;;;5.77;2.60;;;15.60;99.90;;;;;;4935591;29;20503;-84
2022/09/15 20:35:09;;;;;;;4.33;3.17;;;15.60;99.90;;;;;;4939786;29;20452;-84
2022/09/15 20:37:34;;;;;;;3.87;3.20;;;15.60;99.90;;;;;;4954844;28;20450;-85
2022/09/15 20:40:12;;;;;;;5.13;1.93;;;15.60;99.90;;;;;;4953570;29;20466;-85
2022/09/15 20:42:46;;;;;;;3.47;2.23;;;15.50;99.90;;;;;;4961429;29;20183;-85
2022/09/15 20:45:20;;;;;;;5.33;2.27;;;15.50;99.90;;;;;;4969668;29;20449;-84
2022/09/15 20:47:55;;;;;;;8.67;1.83;;;15.50;99.90;;;;;;4946643;29;20423;-85
2022/09/15 20:51:10;;;;;;;6.73;2.30;;;15.50;99.90;;;;;;4953494;29;20747;-84
2022/09/15 20:57:02;;;;;;;7.30;2.57;;;15.50;1.00;;;;;;4932297;29;20449;-84
2022/09/15 20:59:32;;;;;;;8.40;2.13;;;15.40;1.00;;;;;;4952367;29;20490;-85
2022/09/15 21:02:18;;;;;;;7.50;2.30;;;15.40;1.00;;;;;;4954415;28;20448;-83
2022/09/15 21:04:46;;;;;;;8.83;3.70;;;15.40;43.50;;;;;;4948812;29;20512;-84
2022/09/15 21:07:15;;;;;;;8.03;4.50;;;15.30;62.20;;;;;;4961411;29;20477;-84
2022/09/15 21:10:31;;;;;;;7.93;3.13;;;15.30;99.90;;;;;;4952048;29;20460;-84
2022/09/15 21:13:09;;;;;;;;;;;;;;;;;;;;;
2022/09/15 21:15:56;;;;;;;9.03;3.77;;;15.30;99.90;;;;;;4954126;29;20538;-84
2022/09/15 21:21:35;;;;;;;7.23;2.40;;;15.30;99.90;;;;;;4924758;29;20424;-84
2022/09/15 21:28:02;;;;;;;4.40;2.00;;;15.30;1.00;;;;;;4902990;29;20440;-84
2022/09/15 21:31:22;;;;;;;6.40;2.30;;;15.20;1.00;;;;;;4941832;29;20450;-84
2022/09/15 21:34:23;;;;;;;;;;;;;;;;;;;;;
2022/09/15 21:36:56;;;;;;;3.77;2.60;;;15.10;30.10;;;;;;4941696;29;20493;-85
2022/09/15 21:39:27;;;;;;;6.93;2.00;;;15.20;12.20;;;;;;4954528;29;20525;-84
2022/09/15 21:42:27;;;;;;;;;;;;;;;;;;;;;
2022/09/15 21:45:00;;;;;;;5.70;2.13;;;15.10;99.90;;;;;;4950169;29;20503;-85
2022/09/15 21:47:34;;;;;;;5.43;1.80;;;15.20;43.80;;;;;;4935937;29;20463;-83
2022/09/15 21:50:30;;;;;;;;;;;;;;;;;;;;;
2022/09/15 21:56:08;;;;;;;9.60;1.87;;;15.20;1.00;;;;;;4941787;29;20814;-84
2022/09/15 21:58:41;;;;;;;5.50;1.70;;;15.10;1.00;;;;;;4944882;29;20498;-83
2022/09/15 22:01:19;;;;;;;7.20;2.20;;;15.10;1.00;;;;;;4942648;29;20968;-84
2022/09/15 22:03:57;;;;;;;11.17;1.87;;;15.10;1.00;;;;;;4941534;29;20519;-83
2022/09/15 22:06:38;;;;;;;;;;;;;;;;;;;;;
2022/09/15 22:09:37;;;;;;;8.50;1.73;;;15.00;1.00;;;;;;4941522;29;20512;-85
2022/09/15 22:12:28;;;;;;;5.23;1.73;;;14.90;1.00;;;;;;4939625;29;20543;-87
2022/09/15 22:14:57;;;;;;;4.90;1.20;;;14.80;37.30;;;;;;4938801;29;20746;-86
2022/09/15 22:17:41;;;;;;;3.87;1.67;;;14.70;99.90;;;;;;4962725;28;20455;-85
2022/09/15 22:23:47;;;;;;;13.80;2.03;;;14.70;1.00;;;;;;4911526;29;20443;-84
2022/09/15 22:26:26;;;;;;;6.80;1.90;;;14.70;1.00;;;;;;4919164;29;20447;-83
2022/09/15 22:29:12;;;;;;;3.60;1.70;;;14.70;1.00;;;;;;4947801;29;20801;-85
2022/09/15 22:32:01;;;;;;;5.17;1.57;;;14.70;1.00;;;;;;4944356;29;20447;-84
2022/09/15 22:34:55;;;;;;;4.93;1.77;;;14.70;1.00;;;;;;4938393;29;20475;-82
2022/09/15 22:38:01;;;;;;;;;;;;;;;;;;;;;
2022/09/15 22:40:30;;;;;;;7.03;1.70;;;14.50;90.20;;;;;;4941302;29;20513;-85
2022/09/15 22:43:03;;;;;;;4.80;1.60;;;14.50;99.90;;;;;;4947961;29;20424;-84
2022/09/15 22:45:31;;;;;;;3.57;1.40;;;14.50;99.90;;;;;;4941501;29;20454;-83
2022/09/15 22:54:46;;;;;;;6.37;1.83;;;14.50;23.90;;;;;;4935416;29;20560;-84
2022/09/15 23:00:35;;;;;;;7.30;1.80;;;14.50;1.00;;;;;;4930790;29;20480;-84
2022/09/15 23:03:52;;;;;;;4.40;1.40;;;14.40;1.00;;;;;;4943498;29;20442;-86
2022/09/15 23:09:44;;;;;;;6.20;1.80;;;14.40;1.00;;;;;;4942818;29;20445;-83
2022/09/15 23:12:34;;;;;;;4.87;1.17;;;14.30;1.00;;;;;;4937992;29;20519;-85
2022/09/15 23:15:11;;;;;;;6.00;1.77;;;14.30;1.00;;;;;;4935258;29;20470;-83
2022/09/15 23:17:37;;;;;;;4.87;1.20;;;14.30;1.00;;;;;;4935544;29;20425;-85
2022/09/15 23:23:00;;;;;;;4.30;1.30;;;14.20;99.90;;;;;;4933997;29;20464;-84
2022/09/15 23:26:06;;;;;;;3.77;1.40;;;14.10;99.90;;;;;;4959826;29;20457;-84
2022/09/15 23:28:35;;;;;;;5.83;1.70;;;14.10;1.00;;;;;;4944790;29;20442;-84
2022/09/15 23:31:13;;;;;;;4.33;1.50;;;14.10;59.10;;;;;;4946532;29;20465;-87
2022/09/15 23:37:08;;;;;;;4.10;1.53;;;14.10;99.90;;;;;;4938262;29;20437;-83
2022/09/15 23:39:54;;;;;;;8.90;1.80;;;14.10;1.00;;;;;;4942478;29;20511;-84
2022/09/15 23:42:19;;;;;;;9.33;1.77;;;14.20;1.00;;;;;;4964476;29;20442;-85
2022/09/15 23:45:08;;;;;;;2.93;1.60;;;14.20;1.00;;;;;;4950568;29;20441;-83
2022/09/15 23:48:05;;;;;;;2.63;1.40;;;14.20;1.00;;;;;;4948885;29;20628;-84
2022/09/15 23:51:11;;;;;;;2.67;1.50;;;14.30;1.00;;;;;;4945768;29;20432;-85
2022/09/15 23:54:06;;;;;;;5.73;1.63;;;14.20;1.00;;;;;;4943098;29;20493;-86
2022/09/15 23:56:49;;;;;;;5.93;1.70;;;14.20;1.00;;;;;;4933137;29;20466;-81
2022/09/15 23:59:24;;;;;;;4.33;1.60;;;14.20;1.00;;;;;;4942183;29;20499;-85
